Time;durP1;ratioP1;P1;durP2;ratioP2;P2;SDS_P1;SDS_P2;PMS_P1;PMS_P2;Temp;Humidity;BMP_temperature;BMP_pressure;BME280_temperature;BME280_humidity;BME280_pressure;Samples;Min_cycle;Max_cycle;Signal;HPM_P1;HPM_P2
2023/02/17 00:01:16;;;;;;;17.08;10.48;;;;;;;5.78;64.92;101540.78;4944485;28;20476;-69
2023/02/17 00:03:41;;;;;;;18.00;10.43;;;;;;;6.03;63.59;101531.88;4940383;28;20066;-75
2023/02/17 00:06:09;;;;;;;14.98;9.82;;;;;;;6.24;63.46;101524.75;4944542;28;20130;-73
2023/02/17 00:08:35;;;;;;;13.40;8.63;;;;;;;5.61;65.28;101530.56;4938224;28;20049;-72
2023/02/17 00:11:03;;;;;;;18.05;9.57;;;;;;;6.11;64.12;101529.22;4943675;28;20418;-74
2023/02/17 00:13:29;;;;;;;17.30;9.95;;;;;;;6.25;63.16;101516.94;4935489;28;20038;-74
2023/02/17 00:15:54;;;;;;;18.63;10.23;;;;;;;5.99;64.69;101524.16;4961708;28;20026;-70
2023/02/17 00:18:20;;;;;;;14.48;8.75;;;;;;;6.21;63.81;101519.59;4942333;28;20183;-73
2023/02/17 00:20:45;;;;;;;15.75;8.43;;;;;;;5.94;64.32;101515.56;4939429;28;20026;-74
2023/02/17 00:23:11;;;;;;;15.57;8.88;;;;;;;6.07;64.16;101506.75;4942963;28;20035;-73
2023/02/17 00:25:37;;;;;;;16.08;8.55;;;;;;;6.09;64.03;101505.00;4936867;28;20071;-75
2023/02/17 00:28:03;;;;;;;14.52;8.30;;;;;;;6.35;63.13;101512.53;4950644;28;20559;-74
2023/02/17 00:30:29;;;;;;;16.17;7.72;;;;;;;6.11;64.02;101518.84;4946271;28;20039;-75
2023/02/17 00:32:54;;;;;;;15.77;8.15;;;;;;;6.08;64.22;101518.84;4935060;28;20031;-75
2023/02/17 00:35:20;;;;;;;12.27;8.07;;;;;;;6.32;63.54;101517.75;4947398;28;20122;-75
2023/02/17 00:37:45;;;;;;;15.40;8.43;;;;;;;5.87;64.99;101522.53;4945231;28;20034;-73
2023/02/17 00:40:12;;;;;;;13.55;8.23;;;;;;;6.33;63.60;101514.28;4946595;28;20045;-71
2023/02/17 00:42:38;;;;;;;15.10;7.97;;;;;;;6.35;63.44;101509.06;4946009;28;20038;-76
2023/02/17 00:45:03;;;;;;;16.38;8.57;;;;;;;5.88;65.10;101495.69;4932776;28;20050;-77
2023/02/17 00:47:30;;;;;;;12.85;6.55;;;;;;;5.86;64.39;101500.94;4952141;28;20707;-76
2023/02/17 00:49:56;;;;;;;12.75;7.05;;;;;;;5.81;65.59;101501.84;4941919;28;20047;-76
2023/02/17 00:52:22;;;;;;;13.15;7.13;;;;;;;5.96;65.10;101496.50;4934135;28;20035;-76
2023/02/17 00:54:47;;;;;;;12.55;7.20;;;;;;;6.41;63.14;101498.59;4941985;28;20508;-76
2023/02/17 00:57:13;;;;;;;14.02;7.53;;;;;;;6.43;63.41;101500.31;4950747;28;20044;-76
2023/02/17 00:59:39;;;;;;;12.77;6.63;;;;;;;6.08;63.86;101501.56;4937931;28;20039;-75
2023/02/17 01:02:06;;;;;;;12.40;7.25;;;;;;;6.07;64.51;101507.63;4946752;28;20038;-75
2023/02/17 01:04:34;;;;;;;12.98;7.88;;;;;;;6.30;63.81;101498.72;4932891;28;20472;-74
2023/02/17 01:07:00;;;;;;;14.27;7.80;;;;;;;6.42;63.23;101490.81;4942949;28;20046;-74
2023/02/17 01:09:25;;;;;;;13.52;6.78;;;;;;;6.43;63.03;101489.91;4947715;28;20079;-72
2023/02/17 01:11:51;;;;;;;13.30;7.22;;;;;;;6.61;62.43;101481.03;4928082;28;20062;-73
2023/02/17 01:14:17;;;;;;;17.15;7.20;;;;;;;6.19;63.91;101479.81;4932244;28;20055;-73
2023/02/17 01:16:47;;;;;;;19.40;8.00;;;;;;;6.47;63.19;101480.34;4937666;28;20385;-73
2023/02/17 01:19:16;;;;;;;16.30;8.40;;;;;;;5.82;65.46;101475.91;4955382;28;20120;-72
2023/02/17 01:21:45;;;;;;;15.57;8.05;;;;;;;6.40;63.49;101469.19;4946570;28;20171;-72
2023/02/17 01:24:14;;;;;;;13.57;7.63;;;;;;;6.28;63.50;101464.13;4941542;28;20569;-72
2023/02/17 01:26:40;;;;;;;15.30;8.20;;;;;;;6.83;61.43;101468.59;4931133;28;20031;-72
2023/02/17 01:29:06;;;;;;;15.63;8.57;;;;;;;6.41;62.67;101470.03;4946457;28;20050;-72
2023/02/17 01:31:32;;;;;;;15.63;9.07;;;;;;;6.66;62.10;101470.56;4940779;28;20062;-72
2023/02/17 01:34:01;;;;;;;20.80;8.93;;;;;;;6.24;63.41;101473.69;4938180;28;20650;-72
2023/02/17 01:36:28;;;;;;;20.38;10.05;;;;;;;5.91;64.71;101474.94;4937623;28;20388;-73
2023/02/17 01:38:54;;;;;;;19.83;10.55;;;;;;;6.15;64.08;101468.63;4945620;28;20062;-72
2023/02/17 01:41:22;;;;;;;18.73;10.65;;;;;;;6.33;63.67;101469.28;4947119;28;20207;-72
2023/02/17 01:44:04;;;;;;;22.52;10.07;;;;;;;6.49;63.10;101469.06;4944869;28;20444;-72
2023/02/17 01:46:33;;;;;;;19.65;10.18;;;;;;;6.59;62.94;101468.94;4944112;28;20035;-70
2023/02/17 01:49:01;;;;;;;16.27;8.80;;;;;;;6.90;61.65;101471.94;4941691;28;20039;-69
2023/02/17 01:51:32;;;;;;;19.13;8.93;;;;;;;6.76;61.84;101464.38;4939472;28;20031;-70
2023/02/17 01:54:03;;;;;;;21.35;10.35;;;;;;;6.71;62.35;101458.38;4929483;28;20043;-71
2023/02/17 01:56:31;;;;;;;21.95;10.30;;;;;;;6.50;63.12;101449.13;4925578;28;20031;-70
2023/02/17 01:59:04;;;;;;;26.45;10.18;;;;;;;6.22;63.48;101448.63;4928182;28;20053;-70
2023/02/17 02:01:31;;;;;;;20.15;10.05;;;;;;;5.86;65.41;101443.00;4924594;28;20034;-67
2023/02/17 02:03:59;;;;;;;23.30;11.32;;;;;;;6.30;63.33;101441.63;4953497;28;21208;-68
2023/02/17 02:06:27;;;;;;;19.25;10.63;;;;;;;6.62;62.61;101429.91;4946825;28;20047;-69
2023/02/17 02:09:05;;;;;;;25.13;11.13;;;;;;;6.27;63.56;101431.25;4944275;28;20039;-68
2023/02/17 02:11:31;;;;;;;21.13;10.00;;;;;;;6.42;63.44;101425.88;4945017;28;20069;-67
2023/02/17 02:13:58;;;;;;;25.85;11.15;;;;;;;6.63;62.70;101423.88;4922787;28;21348;-74
2023/02/17 02:16:31;;;;;;;22.58;10.68;;;;;;;6.42;63.32;101415.50;4956711;28;20038;-74
2023/02/17 02:18:59;;;;;;;24.65;11.13;;;;;;;6.73;62.27;101421.97;4941541;28;20130;-73
2023/02/17 02:22:06;;;;;;;21.67;11.93;;;;;;;6.17;63.85;101416.66;4942347;28;20121;-73
2023/02/17 02:24:34;;;;;;;22.33;10.30;;;;;;;6.27;63.94;101394.91;4923602;28;20702;-73
2023/02/17 02:27:33;;;;;;;29.80;12.65;;;;;;;6.50;63.20;101397.19;4932113;28;20045;-71
2023/02/17 02:30:25;;;;;;;24.95;11.13;;;;;;;6.21;64.11;101392.38;4932831;28;20071;-73
2023/02/17 02:33:03;;;;;;;28.73;12.50;;;;;;;6.07;64.70;101393.44;4934429;28;20480;-73
2023/02/17 02:35:47;;;;;;;24.63;12.80;;;;;;;6.39;63.74;101389.56;4938972;28;20047;-69
2023/02/17 02:38:39;;;;;;;27.25;13.15;;;;;;;6.17;63.73;101378.63;4928505;28;20035;-68
2023/02/17 02:41:12;;;;;;;27.88;12.60;;;;;;;6.61;62.97;101384.91;4932810;28;20067;-70
2023/02/17 02:43:38;;;;;;;34.40;14.45;;;;;;;5.96;64.51;101378.88;4937438;28;20071;-69
2023/02/17 02:46:04;;;;;;;34.33;15.10;;;;;;;5.59;66.37;101382.78;4944378;28;20031;-70
2023/02/17 02:48:30;;;;;;;32.90;15.88;;;;;;;6.16;64.68;101370.84;4948450;28;20054;-69
2023/02/17 02:51:13;;;;;;;32.47;15.48;;;;;;;6.00;64.73;101371.03;4946187;28;20108;-69
2023/02/17 02:53:47;;;;;;;33.85;15.57;;;;;;;6.24;63.84;101380.25;4962158;28;20048;-70
2023/02/17 02:56:39;;;;;;;32.63;15.98;;;;;;;6.63;62.77;101366.72;4935845;28;20385;-69
2023/02/17 02:59:10;;;;;;;35.55;16.33;;;;;;;6.03;64.63;101360.59;4943519;28;20074;-69
2023/02/17 03:01:44;;;;;;;38.72;17.40;;;;;;;6.50;63.50;101351.31;4930412;28;20392;-70
2023/02/17 03:04:20;;;;;;;37.60;18.02;;;;;;;6.16;64.29;101361.31;4951023;28;20046;-69
2023/02/17 03:07:19;;;;;;;36.67;16.48;;;;;;;6.34;63.92;101344.63;4941110;28;20050;-68
2023/02/17 03:09:55;;;;;;;42.75;17.80;;;;;;;6.45;63.41;101336.69;4947655;28;20067;-69
2023/02/17 03:12:21;;;;;;;35.17;17.95;;;;;;;6.38;63.79;101340.28;4948662;28;20039;-69
2023/02/17 03:15:00;;;;;;;42.95;17.30;;;;;;;6.44;63.24;101343.63;4926314;28;20055;-68
2023/02/17 03:17:29;;;;;;;36.63;17.20;;;;;;;6.56;62.64;101339.97;4941771;28;20046;-70
2023/02/17 03:19:56;;;;;;;37.50;16.63;;;;;;;6.28;63.72;101334.34;4956808;28;20083;-69
2023/02/17 03:22:27;;;;;;;41.45;17.88;;;;;;;6.33;63.63;101332.56;4942559;28;20031;-68
2023/02/17 03:24:53;;;;;;;43.10;17.50;;;;;;;6.54;62.98;101328.75;4957615;28;20045;-67
2023/02/17 03:27:18;;;;;;;32.65;15.90;;;;;;;6.52;62.38;101321.88;4936236;28;20290;-69
2023/02/17 03:29:47;;;;;;;37.28;17.25;;;;;;;6.45;63.24;101316.78;4946551;28;20159;-70
2023/02/17 03:32:12;;;;;;;38.20;17.70;;;;;;;5.98;64.53;101314.84;4946407;28;20058;-70
2023/02/17 03:34:38;;;;;;;38.90;18.55;;;;;;;6.74;62.61;101302.47;4939794;28;20062;-67
2023/02/17 03:37:03;;;;;;;40.30;18.40;;;;;;;6.64;62.49;101303.47;4950013;28;20046;-66
2023/02/17 03:39:29;;;;;;;43.13;19.85;;;;;;;6.86;61.61;101310.06;4942272;28;20126;-67
2023/02/17 03:41:54;;;;;;;34.28;16.60;;;;;;;7.00;61.33;101298.53;4942204;28;20034;-67
2023/02/17 03:44:20;;;;;;;38.65;17.92;;;;;;;5.99;64.23;101286.28;4945003;28;20070;-65
2023/02/17 03:46:46;;;;;;;35.33;16.92;;;;;;;6.33;63.28;101304.00;4945524;28;20138;-68
2023/02/17 03:49:12;;;;;;;39.53;18.60;;;;;;;6.64;62.54;101300.88;4942648;28;20047;-67
2023/02/17 03:51:38;;;;;;;39.80;19.33;;;;;;;6.81;61.71;101293.66;4943661;28;20061;-66
2023/02/17 03:54:03;;;;;;;39.33;19.48;;;;;;;6.16;63.77;101283.44;4941106;28;20094;-67
2023/02/17 03:56:29;;;;;;;34.22;17.50;;;;;;;6.43;62.97;101270.94;4938345;28;20042;-64
2023/02/17 03:58:55;;;;;;;42.83;19.20;;;;;;;6.21;63.88;101272.97;4932526;28;20039;-68
2023/02/17 04:01:21;;;;;;;37.60;18.75;;;;;;;6.24;63.00;101262.56;4944673;28;20031;-66
2023/02/17 04:03:47;;;;;;;37.38;18.92;;;;;;;6.80;61.12;101250.41;4946400;28;20045;-66
2023/02/17 04:06:12;;;;;;;42.40;18.45;;;;;;;6.21;63.49;101244.44;4977086;28;20451;-65
2023/02/17 04:08:38;;;;;;;39.92;18.83;;;;;;;6.65;62.45;101253.25;4960496;28;20117;-68
2023/02/17 04:11:05;;;;;;;36.20;17.30;;;;;;;6.75;61.78;101252.19;4961665;28;20034;-68
2023/02/17 04:13:31;;;;;;;39.38;17.95;;;;;;;6.86;61.69;101250.28;4960233;28;20040;-66
2023/02/17 04:15:58;;;;;;;35.90;18.17;;;;;;;6.63;61.86;101255.88;4958299;28;20064;-69
2023/02/17 04:18:23;;;;;;;37.47;18.23;;;;;;;6.38;62.98;101245.06;4962152;28;20189;-68
2023/02/17 04:20:50;;;;;;;39.22;17.92;;;;;;;6.44;62.81;101244.09;4975219;28;20031;-65
2023/02/17 04:23:16;;;;;;;39.38;19.52;;;;;;;6.44;62.55;101254.47;4967881;28;20043;-66
2023/02/17 04:25:42;;;;;;;47.30;18.52;;;;;;;6.64;61.87;101260.22;4961096;28;20027;-71
2023/02/17 04:28:09;;;;;;;39.65;19.48;;;;;;;6.38;62.35;101252.84;4960031;28;20073;-67
2023/02/17 04:30:35;;;;;;;50.58;19.85;;;;;;;6.41;62.63;101257.97;4941655;28;20130;-67
2023/02/17 04:33:01;;;;;;;34.55;17.15;;;;;;;6.37;62.67;101251.13;4950912;28;20094;-69
2023/02/17 04:35:26;;;;;;;48.03;20.40;;;;;;;6.18;63.05;101245.34;4958361;28;20043;-68
2023/02/17 04:37:52;;;;;;;38.65;17.65;;;;;;;6.62;61.54;101245.50;4975794;28;20043;-70
2023/02/17 04:40:18;;;;;;;34.28;17.80;;;;;;;6.34;62.53;101243.38;4959693;28;20035;-71
2023/02/17 04:42:44;;;;;;;39.60;21.52;;;;;;;5.91;63.58;101244.03;4961637;28;20799;-70
2023/02/17 04:45:13;;;;;;;39.80;20.20;;;;;;;6.14;62.53;101235.03;4960667;28;20049;-69
2023/02/17 04:47:38;;;;;;;39.28;17.27;;;;;;;6.24;62.51;101244.41;4960250;28;20042;-72
2023/02/17 04:50:09;;;;;;;44.88;18.70;;;;;;;6.57;61.43;101231.75;4961637;28;20049;-71
2023/02/17 04:52:34;;;;;;;37.92;18.58;;;;;;;6.68;61.25;101235.00;4960413;28;20042;-72
2023/02/17 04:55:00;;;;;;;40.42;18.60;;;;;;;6.47;61.67;101233.66;4965576;28;20045;-71
2023/02/17 04:57:26;;;;;;;35.58;17.45;;;;;;;6.31;62.06;101225.28;4947278;28;20047;-70
2023/02/17 04:59:52;;;;;;;40.17;17.77;;;;;;;6.07;62.34;101210.91;4960128;28;20141;-69
2023/02/17 05:02:17;;;;;;;39.63;16.77;;;;;;;6.71;61.11;101206.41;4960949;28;20137;-74
2023/02/17 05:04:43;;;;;;;40.50;19.20;;;;;;;6.50;61.33;101182.50;4965786;28;20050;-74
2023/02/17 05:07:08;;;;;;;40.70;17.45;;;;;;;6.65;60.77;101194.38;4967449;28;20030;-73
2023/02/17 05:09:34;;;;;;;37.85;17.73;;;;;;;5.95;62.94;101205.91;4965412;28;20129;-74
2023/02/17 05:11:59;;;;;;;32.63;15.27;;;;;;;6.31;62.27;101206.22;4969611;28;20113;-73
2023/02/17 05:14:27;;;;;;;38.45;17.65;;;;;;;6.40;61.98;101193.97;4952203;28;20042;-73
2023/02/17 05:16:52;;;;;;;44.22;18.17;;;;;;;5.71;63.89;101201.97;4961212;28;20035;-72
2023/02/17 05:19:18;;;;;;;37.30;17.52;;;;;;;6.38;62.29;101208.72;4962895;28;20050;-73
2023/02/17 05:21:43;;;;;;;37.47;16.63;;;;;;;5.83;64.16;101201.75;4960380;28;20105;-68
2023/02/17 05:24:08;;;;;;;45.35;17.88;;;;;;;5.84;63.57;101198.31;4966236;28;20125;-72
2023/02/17 05:26:34;;;;;;;40.08;17.27;;;;;;;6.65;61.13;101194.38;4965899;28;20096;-73
2023/02/17 05:28:59;;;;;;;42.05;16.67;;;;;;;6.32;62.35;101197.56;4959355;28;20043;-73
2023/02/17 05:31:25;;;;;;;41.15;17.35;;;;;;;6.19;62.60;101200.31;4960035;28;20035;-73
2023/02/17 05:33:52;;;;;;;37.50;17.23;;;;;;;5.74;63.67;101199.31;4954915;28;20127;-73
2023/02/17 05:36:18;;;;;;;35.70;16.77;;;;;;;6.04;63.57;101200.59;4958715;28;20500;-73
2023/02/17 05:38:48;;;;;;;43.17;17.27;;;;;;;5.95;63.94;101196.41;4968156;28;20074;-73
2023/02/17 05:41:17;;;;;;;41.58;16.23;;;;;;;5.83;64.12;101191.38;4960114;28;20077;-71
2023/02/17 05:43:43;;;;;;;37.92;16.63;;;;;;;6.55;61.87;101184.19;4960105;28;20047;-66
2023/02/17 05:46:08;;;;;;;36.10;15.77;;;;;;;6.32;62.76;101180.25;4960078;28;20034;-67
2023/02/17 05:48:34;;;;;;;32.22;16.00;;;;;;;5.38;65.30;101178.22;4957339;28;20522;-69
2023/02/17 05:50:59;;;;;;;31.23;14.18;;;;;;;5.84;64.66;101172.38;4965714;28;20041;-70
2023/02/17 05:53:25;;;;;;;35.97;14.95;;;;;;;6.08;63.64;101171.97;4958043;28;20085;-73
2023/02/17 05:55:51;;;;;;;35.22;15.50;;;;;;;5.68;64.99;101158.75;4961608;28;20050;-74
2023/02/17 05:58:16;;;;;;;33.83;15.27;;;;;;;5.75;65.45;101156.91;4958793;28;20045;-76
2023/02/17 06:00:42;;;;;;;31.23;13.23;;;;;;;5.56;65.10;101151.16;4962321;28;20122;-70
2023/02/17 06:03:08;;;;;;;31.50;14.05;;;;;;;5.81;65.24;101152.50;4958139;28;20086;-69
2023/02/17 06:05:33;;;;;;;35.83;12.95;;;;;;;5.96;64.10;101156.59;4957145;28;20512;-74
2023/02/17 06:07:59;;;;;;;33.13;13.13;;;;;;;5.72;65.38;101151.78;4949746;28;20053;-68
2023/02/17 06:10:24;;;;;;;30.35;13.52;;;;;;;5.60;65.76;101158.03;4960112;28;20042;-72
2023/02/17 06:12:50;;;;;;;27.63;12.07;;;;;;;5.80;64.97;101155.97;4957945;28;20588;-71
2023/02/17 06:15:15;;;;;;;31.88;14.23;;;;;;;5.61;65.42;101160.59;4957262;28;20035;-72
2023/02/17 06:17:45;;;;;;;25.33;12.73;;;;;;;5.56;65.25;101141.66;4960395;28;20039;-74
2023/02/17 06:20:12;;;;;;;29.80;13.40;;;;;;;5.77;65.00;101129.22;4977161;28;20043;-71
2023/02/17 06:22:37;;;;;;;33.65;14.00;;;;;;;5.65;65.11;101148.44;4963114;28;20022;-69
2023/02/17 06:25:03;;;;;;;31.60;13.25;;;;;;;5.22;65.83;101142.13;4960871;28;20411;-72
2023/02/17 06:27:29;;;;;;;30.63;11.00;;;;;;;6.06;64.24;101152.97;4960554;28;20053;-66
2023/02/17 06:29:54;;;;;;;26.30;11.18;;;;;;;5.82;63.94;101138.66;4969563;28;20042;-76
2023/02/17 06:32:20;;;;;;;24.20;10.75;;;;;;;5.74;65.15;101156.06;4961932;28;20034;-73
2023/02/17 06:34:47;;;;;;;28.33;12.75;;;;;;;5.49;65.96;101142.63;4963246;28;20068;-70
2023/02/17 06:37:13;;;;;;;25.48;10.57;;;;;;;5.76;64.77;101130.13;4964127;28;20026;-70
2023/02/17 06:39:38;;;;;;;32.90;12.82;;;;;;;5.76;64.76;101149.13;4961209;28;20994;-69
2023/02/17 06:42:04;;;;;;;24.60;10.80;;;;;;;5.63;65.31;101168.34;4962997;28;20479;-68
2023/02/17 06:44:30;;;;;;;22.75;10.27;;;;;;;6.05;63.57;101155.59;4972728;28;20438;-69
2023/02/17 06:46:55;;;;;;;25.17;10.48;;;;;;;5.70;65.11;101148.38;4969444;28;20375;-68
2023/02/17 06:49:21;;;;;;;26.58;10.95;;;;;;;6.05;64.19;101156.44;4961047;28;20046;-67
2023/02/17 06:51:47;;;;;;;28.52;10.93;;;;;;;5.65;65.41;101143.25;4961588;28;20101;-69
2023/02/17 06:54:12;;;;;;;22.65;10.73;;;;;;;6.12;63.98;101139.03;4964794;28;20042;-67
2023/02/17 06:56:37;;;;;;;26.20;9.90;;;;;;;5.40;65.75;101124.59;4959773;28;20514;-69
2023/02/17 06:59:03;;;;;;;21.40;10.00;;;;;;;6.05;63.94;101140.03;4976436;28;20543;-68
2023/02/17 07:01:28;;;;;;;26.60;11.88;;;;;;;5.65;65.32;101131.13;4968233;28;20026;-70
2023/02/17 07:03:57;;;;;;;25.50;10.45;;;;;;;6.19;63.90;101143.22;4971913;28;20807;-77
2023/02/17 07:06:23;;;;;;;28.77;13.45;;;;;;;6.01;64.22;101118.44;4971454;28;20045;-74
2023/02/17 07:08:49;;;;;;;26.40;10.70;;;;;;;6.17;63.99;101124.25;4965255;28;20427;-72
2023/02/17 07:11:15;;;;;;;23.23;9.63;;;;;;;6.04;63.95;101128.78;4967931;28;20030;-77
2023/02/17 07:13:42;;;;;;;25.02;10.88;;;;;;;5.98;64.13;101115.91;4967623;28;20050;-76
2023/02/17 07:16:09;;;;;;;22.10;10.30;;;;;;;5.24;66.54;101117.03;4978938;28;20284;-72
2023/02/17 07:18:36;;;;;;;25.60;10.63;;;;;;;5.90;64.95;101102.19;4962844;28;20790;-69
2023/02/17 07:21:03;;;;;;;20.55;9.95;;;;;;;5.24;65.99;101101.50;4965077;28;20031;-69
2023/02/17 07:23:29;;;;;;;26.30;10.80;;;;;;;5.37;66.37;101080.56;4969320;28;20030;-67
2023/02/17 07:25:54;;;;;;;26.40;12.35;;;;;;;5.48;66.10;101096.84;4959802;28;20114;-70
2023/02/17 07:28:20;;;;;;;25.35;11.40;;;;;;;5.40;65.87;101073.63;4968849;28;20030;-72
2023/02/17 07:30:45;;;;;;;29.55;11.32;;;;;;;6.00;64.82;101080.41;4960302;28;20030;-72
2023/02/17 07:33:10;;;;;;;26.70;11.48;;;;;;;5.37;66.57;101085.75;4962199;28;20065;-72
2023/02/17 07:35:42;;;;;;;26.48;11.55;;;;;;;5.60;66.07;101075.91;4959219;28;20053;-77
2023/02/17 07:38:08;;;;;;;;;;;;;;;5.19;67.66;101072.22;4954619;28;20031;-71
2023/02/17 07:40:35;;;;;;;28.33;10.88;;;;;;;5.81;65.35;101084.19;4961199;28;19965;-71
2023/02/17 07:43:00;;;;;;;23.30;11.35;;;;;;;6.13;64.52;101080.19;4986961;28;20574;-75
2023/02/17 07:45:26;;;;;;;25.90;11.20;;;;;;;5.50;66.21;101063.94;4977849;28;20050;-76
2023/02/17 07:47:51;;;;;;;25.02;12.80;;;;;;;5.61;66.08;101046.50;4961510;28;20085;-70
2023/02/17 07:50:17;;;;;;;34.45;13.38;;;;;;;4.97;68.36;101044.91;4964081;28;20046;-72
2023/02/17 07:52:42;;;;;;;40.90;16.05;;;;;;;5.40;66.97;101050.28;4960386;28;20125;-72
2023/02/17 07:55:08;;;;;;;37.92;14.90;;;;;;;5.46;66.56;101049.34;4960021;28;20567;-73
2023/02/17 07:57:33;;;;;;;43.20;16.95;;;;;;;5.53;66.78;101035.41;4964128;28;20042;-68
2023/02/17 07:59:58;;;;;;;37.00;15.40;;;;;;;5.56;66.51;101024.97;4959334;28;20061;-69
2023/02/17 08:02:24;;;;;;;35.50;15.88;;;;;;;5.51;66.65;101026.78;4960690;28;20576;-68
2023/02/17 08:04:52;;;;;;;40.80;17.50;;;;;;;6.01;65.39;101025.03;4960714;28;20039;-68
2023/02/17 08:07:18;;;;;;;39.08;18.35;;;;;;;5.99;65.34;101036.31;4963451;28;20563;-67
2023/02/17 08:15:12;;;;;;;52.63;18.50;;;;;;;5.66;66.63;101018.75;4963376;28;20100;-66
2023/02/17 08:17:38;;;;;;;43.17;17.08;;;;;;;6.23;65.08;101027.22;4961369;28;20045;-70
2023/02/17 08:20:04;;;;;;;53.40;19.52;;;;;;;5.59;67.35;101027.53;4956044;28;20030;-68
2023/02/17 08:22:30;;;;;;;41.33;18.98;;;;;;;5.43;67.50;101026.03;4959034;28;20846;-68
2023/02/17 08:24:57;;;;;;;55.55;19.42;;;;;;;5.76;66.77;101028.97;4959645;28;20046;-66
2023/02/17 08:27:23;;;;;;;34.58;16.75;;;;;;;6.25;64.62;101012.50;4959578;28;20044;-66
2023/02/17 08:29:49;;;;;;;49.35;18.27;;;;;;;5.79;66.58;101018.53;4958608;28;20120;-66
2023/02/17 08:32:16;;;;;;;49.67;18.48;;;;;;;5.81;65.96;101037.50;4960700;28;20160;-71
2023/02/17 08:34:41;;;;;;;39.75;17.65;;;;;;;6.08;66.01;101025.78;4958873;28;21813;-68
2023/02/17 08:37:10;;;;;;;47.05;18.67;;;;;;;5.83;66.77;101026.22;4961845;28;20137;-66
2023/02/17 08:39:36;;;;;;;43.80;16.27;;;;;;;6.01;66.41;101027.63;4967450;28;20038;-69
2023/02/17 08:42:03;;;;;;;43.95;17.42;;;;;;;5.88;66.24;101015.75;4963106;28;20535;-70
2023/02/17 08:44:29;;;;;;;43.10;16.58;;;;;;;5.89;65.96;101020.09;4959758;28;20034;-68
2023/02/17 08:46:54;;;;;;;41.30;16.83;;;;;;;5.87;66.43;101016.66;4961402;28;20119;-68
2023/02/17 08:49:25;;;;;;;35.60;14.63;;;;;;;6.28;65.24;101038.41;4958624;28;20069;-69
2023/02/17 08:51:52;;;;;;;38.35;15.95;;;;;;;6.11;66.09;101035.28;4960372;28;20570;-70
2023/02/17 08:54:18;;;;;;;37.83;17.67;;;;;;;6.16;66.09;101036.03;4956385;28;20038;-67
2023/02/17 08:56:44;;;;;;;36.92;15.13;;;;;;;5.93;66.74;101011.38;4956105;28;20356;-69
2023/02/17 08:59:11;;;;;;;40.35;15.77;;;;;;;5.99;66.28;101026.81;4962884;28;20134;-69
2023/02/17 09:01:37;;;;;;;46.95;15.20;;;;;;;6.40;65.07;101011.38;4959333;28;20109;-67
2023/02/17 09:04:05;;;;;;;45.40;17.17;;;;;;;6.23;65.67;101006.47;4952352;28;20129;-68
2023/02/17 09:06:37;;;;;;;46.67;16.45;;;;;;;6.45;65.11;101004.34;4960212;28;21382;-67
2023/02/17 09:09:06;;;;;;;40.95;17.08;;;;;;;6.02;66.38;101005.16;4961070;28;20587;-66
2023/02/17 09:11:31;;;;;;;39.95;16.52;;;;;;;5.53;67.62;100975.78;4958530;28;21720;-67
2023/02/17 09:14:01;;;;;;;36.13;14.65;;;;;;;6.33;65.72;101008.03;4961275;28;20121;-70
2023/02/17 09:16:27;;;;;;;41.95;14.00;;;;;;;6.19;66.28;101017.78;4963026;28;20098;-69
2023/02/17 09:18:55;;;;;;;32.35;13.20;;;;;;;6.22;66.36;100992.66;4958612;28;20075;-69
2023/02/17 09:21:23;;;;;;;44.22;15.30;;;;;;;6.07;66.43;100972.19;4959489;28;20139;-69
2023/02/17 09:23:49;;;;;;;28.05;13.38;;;;;;;6.17;66.20;100988.41;4955403;28;20138;-70
2023/02/17 09:26:16;;;;;;;43.33;14.10;;;;;;;6.43;65.69;101019.94;4958215;28;20035;-70
2023/02/17 09:28:42;;;;;;;34.40;14.32;;;;;;;6.71;64.69;100980.41;4957340;28;20039;-69
2023/02/17 09:31:20;;;;;;;35.35;14.85;;;;;;;6.33;65.51;100984.69;4962320;28;20029;-70
2023/02/17 09:33:46;;;;;;;31.40;12.85;;;;;;;6.42;65.63;100989.69;4957513;28;20034;-70
2023/02/17 09:36:15;;;;;;;34.90;13.60;;;;;;;6.11;66.21;101007.56;4958226;28;20074;-68
2023/02/17 09:38:41;;;;;;;25.38;12.70;;;;;;;6.51;64.67;100999.03;4957360;28;20306;-68
2023/02/17 09:41:15;;;;;;;30.85;11.65;;;;;;;6.79;64.10;101001.84;4962313;28;20015;-70
2023/02/17 09:43:41;;;;;;;31.67;13.18;;;;;;;6.61;64.68;101013.50;4957776;28;20042;-69
2023/02/17 09:46:22;;;;;;;27.52;12.27;;;;;;;6.45;65.28;101023.34;4960316;28;20030;-69
2023/02/17 09:48:50;;;;;;;35.00;12.82;;;;;;;6.82;64.26;101061.56;4958280;28;20062;-68
2023/02/17 09:51:26;;;;;;;30.23;12.77;;;;;;;6.86;64.15;101058.03;4973372;28;20223;-68
2023/02/17 09:54:03;;;;;;;25.35;11.57;;;;;;;7.09;63.22;101065.31;4958208;28;20053;-69
2023/02/17 09:56:40;;;;;;;30.33;12.43;;;;;;;6.66;64.08;101049.75;4958236;28;20117;-68
2023/02/17 09:59:23;;;;;;;21.42;10.55;;;;;;;6.66;63.93;101060.16;4958147;28;20129;-70
2023/02/17 10:01:50;;;;;;;24.52;10.90;;;;;;;6.45;64.40;101072.69;4963054;28;20097;-67
2023/02/17 10:04:22;;;;;;;27.20;10.20;;;;;;;6.94;63.25;101081.22;4958409;28;20503;-73
2023/02/17 10:07:20;;;;;;;22.35;9.63;;;;;;;6.95;63.08;101051.75;4952378;28;20035;-77
2023/02/17 10:09:54;;;;;;;18.93;8.37;;;;;;;6.98;62.35;101035.25;4976250;28;20050;-78
2023/02/17 10:12:24;;;;;;;26.05;9.07;;;;;;;7.06;62.46;101048.91;4945427;28;20057;-72
2023/02/17 10:15:15;;;;;;;21.92;8.65;;;;;;;7.06;62.53;101047.16;4959373;28;20038;-71
2023/02/17 10:18:03;;;;;;;13.65;7.25;;;;;;;6.56;63.99;101063.84;4953949;28;20629;-70
2023/02/17 10:20:34;;;;;;;19.33;8.40;;;;;;;7.02;62.63;101062.84;4969304;28;20027;-69
2023/02/17 10:23:06;;;;;;;;;;;;;;;6.85;63.21;101058.03;4958164;28;20116;-67
2023/02/17 10:25:48;;;;;;;24.77;7.50;;;;;;;7.39;61.38;101062.88;4952891;28;19926;-68
2023/02/17 10:28:33;;;;;;;21.90;9.05;;;;;;;7.21;61.92;101043.34;4957890;28;20468;-69
2023/02/17 10:31:09;;;;;;;14.02;7.85;;;;;;;7.17;62.30;101036.50;4965615;28;20161;-69
2023/02/17 10:33:45;;;;;;;18.58;6.68;;;;;;;6.96;62.13;101037.03;4946893;28;20497;-69
2023/02/17 10:36:46;;;;;;;18.75;8.65;;;;;;;7.00;62.52;101049.91;4978760;28;20038;-69
2023/02/17 10:39:41;;;;;;;20.67;6.03;;;;;;;6.91;62.56;101037.97;4954780;28;20047;-69
2023/02/17 10:42:18;;;;;;;21.05;6.82;;;;;;;7.33;61.58;101040.50;4960049;28;20038;-67
2023/02/17 10:44:45;;;;;;;10.00;6.35;;;;;;;7.31;61.10;101041.38;4956358;28;20431;-70
2023/02/17 10:47:11;;;;;;;14.13;6.07;;;;;;;6.91;62.17;101044.94;4965389;28;20118;-70
2023/02/17 10:49:44;;;;;;;11.65;4.95;;;;;;;7.21;61.68;101045.97;4958305;28;20034;-70
2023/02/17 10:52:19;;;;;;;18.27;4.78;;;;;;;7.30;61.72;101050.94;4963169;28;20129;-69
2023/02/17 10:54:59;;;;;;;13.02;5.63;;;;;;;7.09;62.01;101043.66;4950479;28;20042;-69
2023/02/17 10:57:31;;;;;;;15.02;5.07;;;;;;;6.95;62.01;101071.69;4969097;28;20149;-70
2023/02/17 10:59:57;;;;;;;14.25;5.15;;;;;;;7.06;62.15;101059.31;4955744;28;20045;-68
2023/02/17 11:02:36;;;;;;;15.38;4.25;;;;;;;7.19;61.68;101054.69;4956550;28;20064;-69
2023/02/17 11:05:05;;;;;;;8.93;4.20;;;;;;;7.07;61.87;101040.25;4974373;28;20077;-69
2023/02/17 11:07:41;;;;;;;7.10;4.20;;;;;;;7.35;61.37;101034.38;4957428;28;20113;-68
2023/02/17 11:10:22;;;;;;;11.70;4.07;;;;;;;7.41;60.92;101029.88;4959206;28;20053;-69
2023/02/17 11:12:49;;;;;;;10.15;4.18;;;;;;;7.60;60.06;101035.53;4958375;28;20077;-69
2023/02/17 11:15:24;;;;;;;10.73;3.35;;;;;;;7.26;61.49;101023.31;4974548;28;20039;-69
2023/02/17 11:17:51;;;;;;;10.30;3.10;;;;;;;7.32;61.07;101075.16;4957596;28;20042;-70
2023/02/17 11:20:16;;;;;;;8.13;3.35;;;;;;;7.57;60.43;101032.16;4960147;28;20078;-69
2023/02/17 11:23:22;;;;;;;8.23;3.25;;;;;;;7.59;60.23;101044.22;4956999;28;20129;-69
2023/02/17 11:26:15;;;;;;;6.07;2.80;;;;;;;7.18;61.18;100996.66;4956175;28;20047;-69
2023/02/17 11:28:41;;;;;;;8.80;2.45;;;;;;;7.42;60.89;101048.94;4957186;28;20043;-69
2023/02/17 11:31:21;;;;;;;7.32;1.95;;;;;;;7.50;60.29;101039.22;4960167;28;20031;-68
2023/02/17 11:33:47;;;;;;;6.05;2.38;;;;;;;7.53;60.29;101020.91;4956731;28;20193;-68